Fuding, China
Current Conditions -  °F | °C
As of 3:00 PM on Wednesday 26 Nov 2014 (Local Time) from ZSFZ Reporting Station
Broken Clouds Broken Clouds  
Wind Chill: 68°   Ceiling: 4000
Heat Index: 68°   Visibility: 6mi
Dew Point: 57°   Wind: 16mph
Humidity: 68%   Direction: 50°NE
Pressure: 30"   Gusts: NA
Location:  27.33°N, 120.2°E
Report Text: ZSFZ 260700Z 05007MPS 9999 SCT017 BKN040 20/14 Q1016 NOSIG
Loading
Personal Weather Stations






























Interactive Weather Map New forecast layout! Learn more

10-Day Weather Forecast

Advertisements
Track Severe Weather on mobile